createdAt,value
2019-01-29T00:01:13.700Z,19.84
2019-01-29T00:03:42.355Z,20.15
2019-01-29T00:06:11.079Z,20.10
2019-01-29T00:08:39.004Z,20.05
2019-01-29T00:11:07.676Z,20.01
2019-01-29T00:13:35.592Z,19.76
2019-01-29T00:16:04.252Z,19.92
2019-01-29T00:18:32.962Z,19.89
2019-01-29T00:21:01.663Z,19.86
2019-01-29T00:23:30.364Z,19.82
2019-01-29T00:25:59.070Z,19.79
2019-01-29T00:28:27.780Z,19.76
2019-01-29T00:30:56.491Z,19.75
2019-01-29T00:33:25.278Z,19.72
2019-01-29T00:35:53.235Z,19.70
2019-01-29T00:38:22.194Z,19.68
2019-01-29T00:40:50.895Z,19.66
2019-01-29T00:43:20.427Z,19.64
2019-01-29T00:45:49.152Z,19.63
2019-01-29T00:48:18.106Z,19.60
2019-01-29T00:50:48.010Z,19.58
2019-01-29T00:53:16.701Z,19.57
2019-01-29T00:55:45.405Z,19.56
2019-01-29T00:58:13.327Z,19.55
2019-01-29T01:00:41.963Z,19.53
2019-01-29T01:03:09.902Z,19.52
2019-01-29T01:05:38.535Z,19.50
2019-01-29T01:08:06.444Z,19.49
2019-01-29T01:10:35.630Z,19.48
2019-01-29T01:13:04.375Z,19.46
2019-01-29T01:15:32.297Z,19.46
2019-01-29T01:18:00.941Z,19.44
2019-01-29T01:20:28.855Z,19.44
2019-01-29T01:22:57.509Z,19.43
2019-01-29T01:25:25.411Z,19.42
2019-01-29T01:27:54.053Z,19.41
2019-01-29T01:30:22.945Z,19.40
2019-01-29T01:32:51.947Z,19.40
2019-01-29T01:35:20.655Z,19.38
2019-01-29T01:37:49.381Z,19.37
2019-01-29T01:40:18.803Z,19.37
2019-01-29T01:42:47.457Z,19.37
2019-01-29T01:45:16.175Z,19.36
2019-01-29T01:47:44.128Z,19.35
2019-01-29T01:50:13.333Z,19.35
2019-01-29T01:52:42.045Z,19.34
2019-01-29T01:55:12.841Z,19.34
2019-01-29T01:57:41.551Z,19.33
2019-01-29T02:00:18.519Z,19.33
2019-01-29T02:02:47.246Z,19.32
2019-01-29T02:05:15.949Z,19.31
2019-01-29T02:07:43.848Z,19.31
2019-01-29T02:10:26.953Z,19.29
2019-01-29T02:12:55.669Z,19.28
2019-01-29T02:15:24.390Z,19.27
2019-01-29T02:17:52.313Z,19.27
2019-01-29T02:20:20.983Z,19.26
2019-01-29T02:22:48.907Z,19.26
2019-01-29T02:25:17.550Z,19.25
2019-01-29T02:27:46.279Z,19.25
2019-01-29T02:30:15.440Z,19.25
2019-01-29T02:32:44.310Z,19.24
2019-01-29T02:35:12.525Z,19.23
2019-01-29T02:37:41.129Z,19.23
2019-01-29T02:40:15.704Z,19.22
2019-01-29T02:42:44.414Z,19.21
2019-01-29T02:45:13.702Z,19.20
2019-01-29T02:47:42.403Z,19.21
2019-01-29T02:50:11.587Z,19.20
2019-01-29T02:52:40.302Z,19.20
2019-01-29T02:55:10.322Z,19.20
2019-01-29T02:57:39.035Z,19.20
2019-01-29T03:00:11.261Z,19.20
2019-01-29T03:02:40.623Z,19.21
2019-01-29T03:05:09.947Z,19.20
2019-01-29T03:07:38.665Z,19.21
2019-01-29T03:10:09.564Z,19.20
2019-01-29T03:12:38.605Z,19.21
2019-01-29T03:15:12.408Z,19.23
2019-01-29T03:17:41.146Z,19.23
2019-01-29T03:20:09.670Z,19.24
2019-01-29T03:22:38.295Z,19.23
2019-01-29T03:25:08.950Z,19.21
2019-01-29T03:27:37.658Z,19.23
2019-01-29T03:30:07.652Z,19.22
2019-01-29T03:32:36.363Z,19.20
2019-01-29T03:35:06.028Z,19.21
2019-01-29T03:37:34.776Z,19.20
2019-01-29T03:40:02.700Z,19.20
2019-01-29T03:42:31.418Z,19.19
2019-01-29T03:44:59.321Z,19.18
2019-01-29T03:47:28.018Z,19.17
2019-01-29T03:49:56.773Z,19.16
2019-01-29T03:52:24.685Z,19.16
2019-01-29T03:54:53.376Z,19.16
2019-01-29T03:57:22.096Z,19.15
2019-01-29T03:59:51.092Z,19.15
2019-01-29T04:02:19.812Z,19.14
2019-01-29T04:04:48.538Z,19.13
2019-01-29T04:07:17.264Z,19.14
2019-01-29T04:09:45.979Z,19.14
2019-01-29T04:12:14.942Z,19.15
2019-01-29T04:14:43.620Z,19.17
2019-01-29T04:17:14.346Z,19.19
2019-01-29T04:19:43.040Z,19.20
2019-01-29T04:22:11.832Z,19.23
2019-01-29T04:24:39.861Z,19.22
2019-01-29T04:27:08.549Z,19.23
2019-01-29T04:29:36.466Z,19.22
2019-01-29T04:32:05.448Z,19.20
2019-01-29T04:34:34.444Z,19.20
2019-01-29T04:37:03.327Z,19.19
2019-01-29T04:39:31.264Z,19.19
2019-01-29T04:42:00.248Z,19.19
2019-01-29T04:44:38.548Z,19.17
2019-01-29T04:47:07.246Z,19.16
2019-01-29T04:49:36.302Z,19.16
2019-01-29T04:52:05.017Z,19.14
2019-01-29T04:54:33.743Z,19.14
2019-01-29T04:57:02.767Z,19.14
2019-01-29T04:59:31.843Z,19.14
2019-01-29T05:02:00.561Z,19.16
2019-01-29T05:04:29.371Z,19.18
2019-01-29T05:06:57.282Z,19.19
2019-01-29T05:09:25.963Z,19.20
2019-01-29T05:11:54.778Z,19.20
2019-01-29T05:14:22.736Z,19.21
2019-01-29T05:16:51.420Z,19.21
2019-01-29T05:19:20.139Z,19.23
2019-01-29T05:21:48.239Z,19.23
2019-01-29T05:24:16.944Z,19.24
2019-01-29T05:26:45.251Z,19.24
2019-01-29T05:29:13.891Z,19.25
2019-01-29T05:31:42.608Z,19.25
2019-01-29T05:34:11.310Z,19.25
2019-01-29T05:36:40.026Z,19.25
2019-01-29T05:39:08.936Z,19.25
2019-01-29T05:41:37.552Z,19.25
2019-01-29T05:44:06.297Z,19.24
2019-01-29T05:46:34.195Z,19.27
2019-01-29T05:49:02.852Z,19.27
2019-01-29T05:51:31.639Z,19.30
2019-01-29T05:53:59.536Z,19.33
2019-01-29T05:56:28.170Z,19.36
2019-01-29T05:58:56.876Z,19.39
2019-01-29T06:01:25.179Z,19.43
2019-01-29T06:03:54.123Z,19.47
2019-01-29T06:06:23.082Z,19.49
2019-01-29T06:08:51.813Z,19.55
2019-01-29T06:11:20.537Z,19.57
2019-01-29T06:13:48.524Z,19.58
2019-01-29T06:16:17.436Z,19.58
2019-01-29T06:18:46.335Z,19.59
2019-01-29T06:21:15.296Z,19.60
2019-01-29T06:23:44.006Z,19.63
2019-01-29T06:26:12.890Z,19.68
2019-01-29T06:28:41.863Z,19.67
2019-01-29T06:31:10.549Z,19.69
2019-01-29T06:33:39.746Z,19.69
2019-01-29T06:36:11.222Z,19.67
2019-01-29T06:38:39.920Z,19.70
2019-01-29T06:41:08.620Z,19.73
2019-01-29T06:43:36.539Z,19.75
2019-01-29T06:46:05.247Z,19.72
2019-01-29T06:48:33.997Z,19.71
2019-01-29T06:51:02.066Z,19.69
2019-01-29T06:53:30.727Z,19.69
2019-01-29T06:55:58.642Z,19.67
2019-01-29T06:58:27.264Z,19.65
2019-01-29T07:00:56.014Z,19.64
2019-01-29T07:03:23.936Z,19.61
2019-01-29T07:05:52.548Z,19.60
2019-01-29T07:08:20.454Z,19.60
2019-01-29T07:10:49.087Z,19.45
2019-01-29T07:13:17.002Z,19.38
2019-01-29T07:16:03.624Z,19.31
2019-01-29T07:18:39.293Z,19.30
2019-01-29T07:21:10.027Z,19.28
2019-01-29T07:23:40.022Z,19.27
2019-01-29T07:26:08.730Z,19.27
2019-01-29T07:28:37.458Z,19.27
2019-01-29T07:31:06.371Z,19.27
2019-01-29T07:33:35.140Z,19.31
2019-01-29T07:36:03.048Z,19.36
2019-01-29T07:38:31.804Z,19.41
2019-01-29T07:40:59.714Z,19.41
2019-01-29T07:43:28.349Z,19.42
2019-01-29T07:45:57.043Z,19.45
2019-01-29T07:48:25.758Z,19.46
2019-01-29T07:50:53.856Z,19.47
2019-01-29T07:53:22.567Z,19.48
2019-01-29T07:55:50.465Z,19.48
2019-01-29T07:58:19.362Z,19.48
2019-01-29T08:00:48.083Z,19.48
2019-01-29T08:03:16.842Z,19.49
2019-01-29T08:05:45.435Z,19.49
2019-01-29T08:08:13.515Z,19.50
2019-01-29T08:10:42.464Z,19.50
2019-01-29T08:13:11.437Z,19.49
2019-01-29T08:15:40.188Z,19.50
2019-01-29T08:18:08.275Z,19.52
2019-01-29T08:20:36.972Z,19.49
2019-01-29T08:23:04.986Z,19.49
2019-01-29T08:25:33.643Z,19.50
2019-01-29T08:28:01.541Z,19.50
2019-01-29T08:30:30.141Z,19.49
2019-01-29T08:32:58.845Z,19.49
2019-01-29T08:35:26.768Z,19.48
2019-01-29T08:37:55.754Z,19.48
2019-01-29T08:40:24.477Z,19.48
2019-01-29T08:42:53.159Z,19.48
2019-01-29T08:45:21.872Z,19.50
2019-01-29T08:47:49.846Z,19.53
2019-01-29T08:50:20.535Z,19.55
2019-01-29T08:52:49.324Z,19.56
2019-01-29T08:55:17.217Z,19.58
2019-01-29T08:57:45.867Z,19.59
2019-01-29T09:00:14.452Z,19.62
2019-01-29T09:02:43.152Z,19.62
2019-01-29T09:05:11.050Z,19.61
2019-01-29T09:07:39.742Z,19.62
2019-01-29T09:10:08.585Z,19.61
2019-01-29T09:12:36.433Z,19.61
2019-01-29T09:15:06.692Z,19.60
2019-01-29T09:17:35.395Z,19.62
2019-01-29T09:20:04.684Z,19.63
2019-01-29T09:22:33.445Z,19.64
2019-01-29T09:25:01.329Z,19.65
2019-01-29T09:27:30.053Z,19.64
2019-01-29T09:29:57.946Z,19.64
2019-01-29T09:32:26.560Z,19.62
2019-01-29T09:34:54.447Z,19.63
2019-01-29T09:37:23.080Z,19.63
2019-01-29T09:39:51.010Z,19.63
2019-01-29T09:42:19.677Z,19.63
2019-01-29T09:44:47.584Z,19.64
2019-01-29T09:47:16.302Z,19.63
2019-01-29T09:49:44.212Z,19.63
2019-01-29T09:52:12.893Z,19.62
2019-01-29T09:54:40.768Z,19.62
2019-01-29T09:57:09.402Z,19.62
2019-01-29T09:59:37.356Z,19.62
2019-01-29T10:02:06.006Z,19.59
2019-01-29T10:04:33.904Z,19.58
2019-01-29T10:07:02.559Z,19.57
2019-01-29T10:09:30.512Z,19.57
2019-01-29T10:11:59.173Z,19.55
2019-01-29T10:14:28.251Z,19.53
2019-01-29T10:16:56.987Z,19.50
2019-01-29T10:19:25.751Z,19.46
2019-01-29T10:21:53.682Z,19.43
2019-01-29T10:24:22.348Z,19.41
2019-01-29T10:26:50.287Z,19.38
2019-01-29T10:29:18.940Z,19.35
2019-01-29T10:31:48.031Z,19.34
2019-01-29T10:34:16.758Z,19.31
2019-01-29T10:36:45.460Z,19.31
2019-01-29T10:39:14.233Z,19.30
2019-01-29T10:41:42.468Z,19.29
2019-01-29T10:44:11.184Z,19.29
2019-01-29T10:46:39.885Z,19.28
2019-01-29T10:49:08.604Z,19.27
2019-01-29T10:51:37.323Z,19.28
2019-01-29T10:54:06.028Z,19.28
2019-01-29T10:56:33.960Z,19.27
2019-01-29T10:59:02.591Z,19.26
2019-01-29T11:01:30.521Z,19.27
2019-01-29T11:03:59.189Z,19.27
2019-01-29T11:06:27.123Z,19.27
2019-01-29T11:08:56.358Z,19.28
2019-01-29T11:11:25.109Z,19.26
2019-01-29T11:13:53.810Z,19.27
2019-01-29T11:16:22.538Z,19.30
2019-01-29T11:18:51.281Z,19.30
2019-01-29T11:21:19.214Z,19.30
2019-01-29T11:23:47.888Z,19.32
2019-01-29T11:26:16.603Z,19.32
2019-01-29T11:28:45.344Z,19.32
2019-01-29T11:31:13.260Z,19.32
2019-01-29T11:33:41.975Z,19.31
2019-01-29T11:36:10.394Z,19.31
2019-01-29T11:38:39.044Z,19.30
2019-01-29T11:41:06.954Z,19.30
2019-01-29T11:43:35.773Z,19.31
2019-01-29T11:46:04.600Z,19.28
2019-01-29T11:48:32.535Z,19.28
2019-01-29T11:51:01.617Z,19.29
2019-01-29T11:53:30.350Z,19.27
2019-01-29T11:56:04.660Z,19.26
2019-01-29T11:58:29.958Z,19.27
2019-01-29T12:01:24.068Z,19.26
2019-01-29T12:03:53.168Z,19.26
2019-01-29T12:06:21.902Z,19.26
2019-01-29T12:08:50.621Z,19.26
2019-01-29T12:11:19.374Z,19.27
2019-01-29T12:13:47.296Z,19.26
2019-01-29T12:16:15.959Z,19.28
2019-01-29T12:18:44.773Z,19.26
2019-01-29T12:21:24.651Z,19.26
2019-01-29T12:23:43.188Z,19.31
2019-01-29T12:26:13.339Z,19.37
2019-01-29T12:28:43.963Z,19.44
2019-01-29T12:31:12.684Z,19.50
2019-01-29T12:33:41.403Z,19.56
2019-01-29T12:36:09.329Z,19.56
2019-01-29T12:38:38.515Z,19.61
2019-01-29T12:41:07.538Z,19.70
2019-01-29T12:43:36.673Z,19.90
2019-01-29T12:46:06.037Z,20.02
2019-01-29T12:48:35.142Z,20.10
2019-01-29T12:51:07.810Z,20.18
2019-01-29T12:53:39.887Z,20.24
2019-01-29T12:56:08.872Z,20.19
2019-01-29T12:58:37.635Z,19.97
2019-01-29T13:01:05.622Z,20.26
2019-01-29T13:03:34.303Z,20.27
2019-01-29T13:06:02.286Z,20.20
2019-01-29T13:08:31.048Z,20.17
2019-01-29T13:10:59.801Z,20.12
2019-01-29T13:13:27.755Z,20.11
2019-01-29T13:15:56.483Z,20.06
2019-01-29T13:18:24.388Z,20.04
2019-01-29T13:20:53.137Z,20.06
2019-01-29T13:23:22.289Z,20.06
2019-01-29T13:25:51.034Z,20.04
2019-01-29T13:28:18.949Z,20.02
2019-01-29T13:30:47.639Z,19.98
2019-01-29T13:33:15.617Z,19.96
2019-01-29T13:35:44.556Z,19.91
2019-01-29T13:38:13.834Z,19.88
2019-01-29T13:40:45.636Z,19.86
2019-01-29T13:43:14.347Z,19.84
2019-01-29T13:45:43.456Z,19.81
2019-01-29T13:48:12.165Z,19.78
2019-01-29T13:50:46.788Z,19.78
2019-01-29T13:53:15.548Z,19.77
2019-01-29T13:55:43.502Z,19.78
2019-01-29T13:58:12.350Z,19.78
2019-01-29T14:00:41.256Z,19.78
2019-01-29T14:03:10.789Z,19.79
2019-01-29T14:05:39.519Z,19.78
2019-01-29T14:08:07.530Z,19.77
2019-01-29T14:10:36.417Z,19.78
2019-01-29T14:13:05.715Z,19.76
2019-01-29T14:15:46.035Z,19.73
2019-01-29T14:18:15.559Z,19.73
2019-01-29T14:20:44.343Z,19.71
2019-01-29T14:23:12.303Z,19.70
2019-01-29T14:25:41.042Z,19.70
2019-01-29T14:28:09.073Z,19.68
2019-01-29T14:30:37.890Z,19.69
2019-01-29T14:33:07.430Z,19.65
2019-01-29T14:35:36.160Z,19.63
2019-01-29T14:38:49.254Z,19.62
2019-01-29T14:41:19.791Z,19.63
2019-01-29T14:43:54.085Z,19.60
2019-01-29T14:46:22.945Z,19.58
2019-01-29T14:48:51.722Z,19.58
2019-01-29T14:51:19.692Z,19.58
2019-01-29T14:53:48.371Z,19.57
2019-01-29T14:56:16.627Z,19.57
2019-01-29T14:58:45.391Z,19.56
2019-01-29T15:01:13.493Z,19.56
2019-01-29T15:03:45.112Z,19.58
2019-01-29T15:06:13.849Z,19.57
2019-01-29T15:08:41.877Z,19.57
2019-01-29T15:11:10.655Z,19.57
2019-01-29T15:13:39.401Z,18.95
2019-01-29T15:16:25.874Z,19.57
2019-01-29T15:18:59.221Z,19.55
2019-01-29T15:21:27.939Z,19.55
2019-01-29T15:23:56.124Z,19.54
2019-01-29T15:26:24.749Z,19.01
2019-01-29T15:28:52.735Z,19.53
2019-01-29T15:31:21.444Z,19.52
2019-01-29T15:33:49.365Z,19.52
2019-01-29T15:36:18.034Z,19.51
2019-01-29T15:38:46.215Z,19.51
2019-01-29T15:41:15.081Z,19.51
2019-01-29T15:43:43.779Z,19.50
2019-01-29T15:46:12.590Z,19.50
2019-01-29T15:48:40.506Z,19.57
2019-01-29T15:51:09.352Z,19.56
2019-01-29T15:53:40.360Z,19.53
2019-01-29T15:56:10.103Z,19.55
2019-01-29T15:58:38.779Z,19.55
2019-01-29T16:01:07.458Z,19.56
2019-01-29T16:03:35.477Z,19.57
2019-01-29T16:06:04.193Z,19.57
2019-01-29T16:08:32.131Z,19.58
2019-01-29T16:11:01.213Z,19.61
2019-01-29T16:13:29.941Z,19.64
2019-01-29T16:15:58.650Z,19.64
2019-01-29T16:18:26.561Z,19.64
2019-01-29T16:20:55.270Z,19.64
2019-01-29T16:23:23.190Z,19.65
2019-01-29T16:25:51.839Z,19.65
2019-01-29T16:28:19.733Z,19.65
2019-01-29T16:30:48.385Z,19.66
2019-01-29T16:33:17.433Z,19.67
2019-01-29T16:35:46.444Z,19.67
2019-01-29T16:38:15.260Z,19.67
2019-01-29T16:40:43.164Z,19.69
2019-01-29T16:43:11.849Z,19.68
2019-01-29T16:45:39.761Z,19.66
2019-01-29T16:48:08.486Z,19.64
2019-01-29T16:50:36.602Z,19.63
2019-01-29T16:53:05.651Z,19.62
2019-01-29T16:55:34.352Z,19.63
2019-01-29T16:58:03.228Z,19.62
2019-01-29T17:00:32.420Z,19.61
2019-01-29T17:03:01.487Z,19.62
2019-01-29T17:05:30.324Z,19.63
2019-01-29T17:07:58.588Z,19.68
2019-01-29T17:10:27.328Z,19.70
2019-01-29T17:12:56.073Z,19.79
2019-01-29T17:15:25.033Z,19.88
2019-01-29T17:17:53.780Z,19.89
2019-01-29T17:20:23.244Z,19.93
2019-01-29T17:22:51.917Z,19.97
2019-01-29T17:25:19.815Z,20.01
2019-01-29T17:27:48.462Z,20.06
2019-01-29T17:30:18.591Z,20.10
2019-01-29T17:32:47.254Z,20.11
2019-01-29T17:35:15.192Z,20.15
2019-01-29T17:37:43.818Z,20.21
2019-01-29T17:40:11.859Z,20.25
2019-01-29T17:42:40.600Z,20.28
2019-01-29T17:45:09.406Z,20.23
2019-01-29T17:47:38.898Z,20.10
2019-01-29T17:50:12.156Z,20.11
2019-01-29T17:52:41.012Z,20.13
2019-01-29T17:55:11.141Z,20.11
2019-01-29T17:57:50.213Z,20.12
2019-01-29T18:00:16.391Z,20.15
2019-01-29T18:02:45.161Z,20.19
2019-01-29T18:05:13.035Z,20.16
2019-01-29T18:07:41.720Z,20.15
2019-01-29T18:10:11.153Z,20.22
2019-01-29T18:12:39.897Z,20.32
2019-01-29T18:15:09.553Z,20.40
2019-01-29T18:17:38.815Z,20.46
2019-01-29T18:20:08.427Z,20.49
2019-01-29T18:22:37.283Z,20.53
2019-01-29T18:25:07.345Z,20.54
2019-01-29T18:27:36.245Z,20.54
2019-01-29T18:30:08.942Z,20.59
2019-01-29T18:32:38.110Z,20.57
2019-01-29T18:35:07.564Z,20.60
2019-01-29T18:37:36.485Z,20.56
2019-01-29T18:40:06.756Z,20.59
2019-01-29T18:42:35.490Z,20.62
2019-01-29T18:45:04.918Z,20.65
2019-01-29T18:47:33.599Z,20.67
2019-01-29T18:50:01.916Z,20.71
2019-01-29T18:52:30.576Z,20.71
2019-01-29T18:54:59.301Z,20.73
2019-01-29T18:57:27.720Z,20.76
2019-01-29T18:59:57.206Z,20.77
2019-01-29T19:02:26.025Z,20.72
2019-01-29T19:04:54.727Z,20.57
2019-01-29T19:07:22.617Z,20.51
2019-01-29T19:09:51.549Z,20.47
2019-01-29T19:12:20.233Z,20.46
2019-01-29T19:14:48.244Z,20.46
2019-01-29T19:17:16.939Z,20.45
2019-01-29T19:19:44.846Z,20.43
2019-01-29T19:22:13.473Z,20.39
2019-01-29T19:24:41.382Z,20.39
2019-01-29T19:27:10.082Z,20.38
2019-01-29T19:29:38.810Z,20.36
2019-01-29T19:32:06.829Z,20.34
2019-01-29T19:34:35.969Z,20.34
2019-01-29T19:37:04.690Z,20.32
2019-01-29T19:39:32.983Z,20.28
2019-01-29T19:42:01.661Z,20.28
2019-01-29T19:44:29.567Z,20.28
2019-01-29T19:46:58.859Z,20.37
2019-01-29T19:49:27.589Z,20.40
2019-01-29T19:51:55.990Z,20.43
2019-01-29T19:54:24.781Z,20.44
2019-01-29T19:56:53.485Z,20.46
2019-01-29T19:59:21.730Z,20.54
2019-01-29T20:01:50.426Z,20.60
2019-01-29T20:04:18.862Z,20.71
2019-01-29T20:06:47.481Z,20.81
2019-01-29T20:09:16.274Z,20.91
2019-01-29T20:11:45.018Z,20.98
2019-01-29T20:14:12.889Z,21.05
2019-01-29T20:16:41.494Z,21.12
2019-01-29T20:19:09.473Z,21.14
2019-01-29T20:21:38.149Z,21.04
2019-01-29T20:24:06.845Z,21.02
2019-01-29T20:26:34.767Z,21.03
2019-01-29T20:29:03.671Z,21.01
2019-01-29T20:31:32.748Z,21.08
2019-01-29T20:34:01.483Z,21.05
2019-01-29T20:36:30.188Z,21.03
2019-01-29T20:38:58.381Z,21.01
2019-01-29T20:41:27.018Z,21.06
2019-01-29T20:43:55.799Z,21.12
2019-01-29T20:46:24.782Z,21.03
2019-01-29T20:48:53.642Z,20.92
2019-01-29T20:51:22.642Z,20.95
2019-01-29T20:53:51.455Z,20.98
2019-01-29T20:56:20.161Z,21.02
2019-01-29T20:58:52.755Z,21.07
2019-01-29T21:01:18.801Z,21.05
2019-01-29T21:03:47.525Z,20.99
2019-01-29T21:06:15.939Z,21.02
2019-01-29T21:08:46.031Z,21.09
2019-01-29T21:11:14.829Z,21.08
2019-01-29T21:13:44.904Z,21.07
2019-01-29T21:16:13.917Z,21.12
2019-01-29T21:18:42.629Z,21.12
2019-01-29T21:21:11.057Z,21.16
2019-01-29T21:23:41.178Z,21.21
2019-01-29T21:26:09.887Z,21.20
2019-01-29T21:28:38.908Z,21.18
2019-01-29T21:31:07.966Z,21.22
2019-01-29T21:33:38.243Z,21.23
2019-01-29T21:36:07.092Z,21.24
2019-01-29T21:38:36.511Z,21.19
2019-01-29T21:41:05.330Z,21.12
2019-01-29T21:43:34.192Z,21.12
2019-01-29T21:46:02.920Z,21.11
2019-01-29T21:48:31.642Z,21.08
2019-01-29T21:50:59.522Z,21.06
2019-01-29T21:53:28.162Z,21.06
2019-01-29T21:55:57.191Z,21.07
2019-01-29T21:58:26.274Z,21.06
2019-01-29T22:00:56.030Z,21.11
2019-01-29T22:03:24.825Z,21.16
2019-01-29T22:05:53.535Z,21.15
2019-01-29T22:08:21.431Z,21.13
2019-01-29T22:10:50.053Z,21.03
2019-01-29T22:13:18.797Z,21.02
2019-01-29T22:15:46.866Z,20.97
2019-01-29T22:18:15.795Z,20.98
2019-01-29T22:20:44.513Z,21.00
2019-01-29T22:23:12.414Z,20.93
2019-01-29T22:25:41.097Z,20.89
2019-01-29T22:28:11.100Z,20.90
2019-01-29T22:30:41.731Z,20.90
2019-01-29T22:33:10.872Z,20.97
2019-01-29T22:35:40.268Z,20.98
2019-01-29T22:38:08.972Z,21.00
2019-01-29T22:40:36.862Z,21.09
2019-01-29T22:43:05.870Z,21.07
2019-01-29T22:45:34.562Z,21.12
2019-01-29T22:48:04.640Z,21.15
2019-01-29T22:50:35.436Z,21.18
2019-01-29T22:53:04.168Z,21.21
2019-01-29T22:55:32.877Z,21.21
2019-01-29T22:58:01.612Z,21.25
2019-01-29T23:00:47.537Z,21.28
2019-01-29T23:03:17.106Z,21.23
2019-01-29T23:05:46.878Z,21.17
2019-01-29T23:08:15.899Z,21.19
2019-01-29T23:10:44.596Z,20.98
2019-01-29T23:13:12.514Z,20.84
2019-01-29T23:15:41.146Z,20.72
2019-01-29T23:18:10.250Z,20.63
2019-01-29T23:20:39.065Z,20.56
2019-01-29T23:23:07.783Z,20.49
2019-01-29T23:25:35.686Z,20.42
2019-01-29T23:28:04.331Z,20.38
2019-01-29T23:30:32.238Z,20.33
2019-01-29T23:33:01.215Z,20.27
2019-01-29T23:35:30.185Z,20.23
2019-01-29T23:37:58.899Z,20.18
2019-01-29T23:40:26.779Z,20.13
2019-01-29T23:42:55.401Z,20.10
2019-01-29T23:45:23.299Z,20.06
2019-01-29T23:48:00.395Z,20.02
2019-01-29T23:50:30.380Z,20.00
2019-01-29T23:52:59.408Z,19.96
2019-01-29T23:55:28.139Z,19.92
2019-01-29T23:57:56.031Z,19.89
